Time;durP1;ratioP1;P1;durP2;ratioP2;P2;SDS_P1;SDS_P2;PMS_P1;PMS_P2;Temp;Humidity;BMP_temperature;BMP_pressure;BME280_temperature;BME280_humidity;BME280_pressure;Samples;Min_cycle;Max_cycle;Signal;HPM_P1;HPM_P2
2021/09/06 00:02:22;;;;;;;30.45;21.05;;;15.90;90.20;;;;;;4872659;29;20036;-83
2021/09/06 00:04:48;;;;;;;27.17;20.10;;;15.90;90.30;;;;;;4919826;29;20051;-83
2021/09/06 00:07:13;;;;;;;29.80;21.00;;;15.80;90.50;;;;;;4936011;29;20095;-85
2021/09/06 00:09:40;;;;;;;28.38;20.23;;;15.80;90.60;;;;;;4903792;29;20479;-81
2021/09/06 00:12:08;;;;;;;29.95;19.85;;;15.80;90.60;;;;;;4888559;29;20036;-81
2021/09/06 00:14:35;;;;;;;30.60;20.98;;;15.90;90.60;;;;;;4903461;29;20039;-83
2021/09/06 00:17:01;;;;;;;28.60;21.90;;;15.80;90.50;;;;;;4887945;29;20453;-83
2021/09/06 00:19:26;;;;;;;30.70;21.23;;;15.70;90.50;;;;;;4934530;29;20388;-82
2021/09/06 00:21:53;;;;;;;28.73;21.90;;;15.60;90.60;;;;;;4888168;29;20032;-81
2021/09/06 00:24:19;;;;;;;31.08;21.30;;;15.50;90.70;;;;;;4902745;29;20032;-84
2021/09/06 00:26:45;;;;;;;33.63;21.25;;;15.50;90.90;;;;;;4887788;29;20036;-82
2021/09/06 00:29:10;;;;;;;28.80;20.85;;;15.50;90.90;;;;;;4887540;29;20659;-81
2021/09/06 00:31:36;;;;;;;27.27;20.95;;;15.50;91.10;;;;;;4902938;29;20036;-83
2021/09/06 00:34:02;;;;;;;32.15;22.42;;;15.50;91.10;;;;;;4872206;29;20032;-83
2021/09/06 00:36:28;;;;;;;33.75;22.92;;;15.40;91.20;;;;;;4886910;29;20020;-81
2021/09/06 00:38:54;;;;;;;29.00;20.80;;;15.30;91.30;;;;;;4903267;29;20036;-84
2021/09/06 00:41:20;;;;;;;30.58;21.98;;;15.30;91.50;;;;;;4871718;29;20115;-82
2021/09/06 00:43:47;;;;;;;27.85;19.88;;;15.20;91.60;;;;;;4872078;29;20062;-82
2021/09/06 00:46:13;;;;;;;28.33;22.00;;;15.30;91.70;;;;;;4903288;29;20051;-80
2021/09/06 00:48:39;;;;;;;32.20;21.80;;;15.20;91.60;;;;;;4918577;29;20444;-81
2021/09/06 00:51:05;;;;;;;29.23;21.73;;;15.20;91.80;;;;;;4918746;29;20107;-81
2021/09/06 00:53:31;;;;;;;30.40;21.98;;;15.20;91.90;;;;;;4903371;29;20119;-82
2021/09/06 00:55:57;;;;;;;27.98;21.02;;;15.10;91.90;;;;;;4934689;29;20072;-83
2021/09/06 00:58:24;;;;;;;31.95;21.60;;;15.10;91.90;;;;;;4934892;29;20067;-84
2021/09/06 01:00:49;;;;;;;31.88;21.95;;;15.00;92.00;;;;;;4935279;29;20364;-83
2021/09/06 01:03:15;;;;;;;30.23;20.90;;;15.00;92.20;;;;;;4902915;29;20044;-83
2021/09/06 01:05:41;;;;;;;31.08;22.88;;;15.00;92.40;;;;;;4871669;29;20025;-82
2021/09/06 01:08:07;;;;;;;31.88;21.00;;;15.00;92.30;;;;;;4903572;29;20037;-82
2021/09/06 01:10:33;;;;;;;30.40;21.17;;;15.00;92.30;;;;;;4918836;29;20033;-82
2021/09/06 01:12:59;;;;;;;28.05;21.00;;;15.00;92.20;;;;;;4886869;29;20043;-83
2021/09/06 01:15:24;;;;;;;30.17;21.13;;;14.90;92.30;;;;;;4902693;29;20036;-83
2021/09/06 01:17:51;;;;;;;31.45;21.83;;;14.90;92.40;;;;;;4887672;29;20099;-82
2021/09/06 01:20:17;;;;;;;28.38;20.48;;;14.90;92.40;;;;;;4902997;29;20379;-81
2021/09/06 01:22:43;;;;;;;30.08;22.15;;;14.90;92.40;;;;;;4887260;29;20028;-81
2021/09/06 01:25:13;;;;;;;30.65;21.90;;;14.80;92.40;;;;;;4874788;29;20442;-81
2021/09/06 01:27:40;;;;;;;30.38;22.15;;;14.70;92.60;;;;;;4941206;29;20035;-82
2021/09/06 01:30:06;;;;;;;34.55;24.48;;;14.70;92.60;;;;;;4929272;29;20048;-84
2021/09/06 01:32:32;;;;;;;33.08;23.70;;;14.70;92.80;;;;;;4930436;29;20043;-85
2021/09/06 01:34:58;;;;;;;32.25;23.30;;;14.60;92.90;;;;;;4946974;29;20025;-82
2021/09/06 01:37:24;;;;;;;36.05;22.15;;;14.50;92.90;;;;;;4948602;29;20046;-81
2021/09/06 01:39:49;;;;;;;31.70;22.77;;;14.50;93.10;;;;;;4886428;29;20028;-82
2021/09/06 01:42:15;;;;;;;31.63;22.45;;;14.40;93.20;;;;;;4902220;29;20107;-81
2021/09/06 01:44:41;;;;;;;34.60;23.30;;;14.40;93.30;;;;;;4902036;29;20035;-81
2021/09/06 01:47:07;;;;;;;35.70;23.38;;;14.30;93.50;;;;;;4903275;29;20072;-81
2021/09/06 01:49:32;;;;;;;34.67;22.92;;;14.30;93.60;;;;;;4922922;29;20481;-83
2021/09/06 01:51:58;;;;;;;35.00;23.35;;;14.30;93.70;;;;;;4890909;29;20060;-82
2021/09/06 01:54:24;;;;;;;32.30;22.90;;;14.30;93.80;;;;;;4938374;29;20039;-84
2021/09/06 01:56:50;;;;;;;33.83;23.17;;;14.20;93.80;;;;;;4923255;29;20088;-82
2021/09/06 01:59:15;;;;;;;35.72;23.48;;;14.30;93.90;;;;;;4954027;29;20060;-85
2021/09/06 02:01:41;;;;;;;33.67;23.27;;;14.30;93.80;;;;;;4945759;29;20032;-82
2021/09/06 02:04:07;;;;;;;33.28;23.20;;;14.30;93.80;;;;;;4928391;29;20032;-81
2021/09/06 02:06:32;;;;;;;33.25;22.80;;;14.30;93.90;;;;;;4925556;29;20063;-84
2021/09/06 02:08:58;;;;;;;35.90;24.05;;;14.20;94.00;;;;;;4910153;29;20401;-82
2021/09/06 02:11:24;;;;;;;37.67;24.45;;;14.20;94.00;;;;;;4910695;29;20036;-82
2021/09/06 02:13:50;;;;;;;34.58;23.08;;;14.10;94.10;;;;;;4895800;29;20044;-81
2021/09/06 02:16:15;;;;;;;32.97;23.17;;;14.10;94.10;;;;;;4916451;29;20028;-82
2021/09/06 02:18:41;;;;;;;38.42;23.42;;;14.10;94.20;;;;;;4938760;29;20043;-81
2021/09/06 02:21:07;;;;;;;35.58;23.80;;;14.10;94.20;;;;;;4930889;29;20036;-84
2021/09/06 02:23:32;;;;;;;34.97;23.58;;;14.10;94.20;;;;;;4895320;29;20368;-85
2021/09/06 02:25:58;;;;;;;35.33;23.88;;;14.00;94.30;;;;;;4910256;29;20171;-81
2021/09/06 02:28:24;;;;;;;35.28;23.13;;;14.00;94.40;;;;;;4878933;29;20071;-83
2021/09/06 02:30:50;;;;;;;35.20;22.73;;;13.90;94.40;;;;;;4940799;29;20115;-83
2021/09/06 02:33:15;;;;;;;36.33;23.98;;;13.90;94.70;;;;;;4878660;29;20103;-82
2021/09/06 02:35:41;;;;;;;36.63;24.15;;;13.90;94.60;;;;;;4909657;29;20040;-81
2021/09/06 02:38:07;;;;;;;33.47;23.23;;;13.90;94.60;;;;;;4892997;29;20047;-81
2021/09/06 02:40:33;;;;;;;36.88;23.75;;;13.90;94.60;;;;;;4908642;29;20064;-81
2021/09/06 02:42:59;;;;;;;32.80;22.40;;;13.80;94.60;;;;;;4905634;29;20029;-81
2021/09/06 02:45:24;;;;;;;35.92;24.17;;;13.80;94.70;;;;;;4904641;29;20119;-80
2021/09/06 02:47:50;;;;;;;38.15;24.50;;;13.80;94.80;;;;;;4920250;29;20131;-81
2021/09/06 02:50:16;;;;;;;37.35;24.23;;;13.70;94.80;;;;;;4905223;29;20036;-80
2021/09/06 02:52:42;;;;;;;34.53;23.40;;;13.70;94.90;;;;;;4921898;29;20107;-82
2021/09/06 02:55:08;;;;;;;33.58;22.75;;;13.70;95.00;;;;;;4921559;29;20368;-80
2021/09/06 02:57:34;;;;;;;33.65;22.40;;;13.70;95.00;;;;;;4904335;29;20100;-81
2021/09/06 03:00:00;;;;;;;35.95;23.83;;;13.70;95.00;;;;;;4935180;29;20024;-81
2021/09/06 03:02:26;;;;;;;36.33;23.90;;;13.80;95.10;;;;;;4889016;29;20056;-80
2021/09/06 03:04:52;;;;;;;36.67;24.13;;;13.80;95.20;;;;;;4904860;29;20119;-81
2021/09/06 03:07:17;;;;;;;34.67;22.98;;;13.80;95.00;;;;;;4904775;29;20537;-81
2021/09/06 03:09:43;;;;;;;35.55;24.27;;;13.70;95.00;;;;;;4921171;29;20457;-82
2021/09/06 03:12:09;;;;;;;37.53;24.00;;;13.70;95.00;;;;;;4936661;29;20020;-80
2021/09/06 03:14:34;;;;;;;35.60;23.92;;;13.70;95.30;;;;;;4889272;29;20460;-81
2021/09/06 03:17:00;;;;;;;35.28;23.00;;;13.70;95.20;;;;;;4904629;29;20028;-81
2021/09/06 03:19:26;;;;;;;35.25;23.38;;;13.80;95.20;;;;;;4904459;29;20048;-81
2021/09/06 03:21:52;;;;;;;39.35;25.33;;;13.70;95.10;;;;;;4920325;29;20441;-81
2021/09/06 03:24:17;;;;;;;36.38;25.23;;;13.70;95.10;;;;;;4873541;29;20032;-80
2021/09/06 03:26:43;;;;;;;36.67;25.13;;;13.70;95.20;;;;;;4889240;29;20476;-82
2021/09/06 03:29:09;;;;;;;36.22;24.27;;;13.70;95.20;;;;;;4873055;29;20028;-81
2021/09/06 03:31:35;;;;;;;37.50;24.92;;;13.60;95.30;;;;;;4919827;29;20487;-82
2021/09/06 03:34:01;;;;;;;39.65;26.45;;;13.70;95.40;;;;;;4888526;29;20491;-82
2021/09/06 03:36:29;;;;;;;37.40;24.95;;;13.60;95.30;;;;;;4935973;29;20032;-82
2021/09/06 03:38:55;;;;;;;37.20;23.92;;;13.50;95.40;;;;;;4920650;29;20028;-83
2021/09/06 03:41:22;;;;;;;37.05;24.70;;;13.60;95.60;;;;;;4888356;29;20036;-81
2021/09/06 03:43:49;;;;;;;39.17;25.63;;;13.60;95.60;;;;;;4920848;29;20024;-82
2021/09/06 03:46:15;;;;;;;37.38;24.42;;;13.50;95.70;;;;;;4903930;29;20460;-83
2021/09/06 03:48:41;;;;;;;36.72;24.30;;;13.50;95.60;;;;;;4934415;29;20036;-83
2021/09/06 03:51:07;;;;;;;38.60;24.48;;;13.50;95.60;;;;;;4916433;29;20048;-84
2021/09/06 03:53:33;;;;;;;39.13;25.52;;;13.50;95.60;;;;;;4920412;29;20083;-83
2021/09/06 03:55:59;;;;;;;38.20;24.52;;;13.50;95.60;;;;;;4902775;29;20039;-82
2021/09/06 03:58:24;;;;;;;39.17;26.20;;;13.40;95.80;;;;;;4903433;29;20067;-83
2021/09/06 04:00:50;;;;;;;41.42;25.48;;;13.40;95.70;;;;;;4903448;29;20035;-83
2021/09/06 04:03:16;;;;;;;35.92;23.95;;;13.40;95.70;;;;;;4887255;29;20047;-82
2021/09/06 04:05:41;;;;;;;37.60;25.00;;;13.40;95.80;;;;;;4902847;29;20040;-81
2021/09/06 04:08:07;;;;;;;38.33;25.83;;;13.30;95.70;;;;;;4886927;29;20060;-82
2021/09/06 04:10:33;;;;;;;37.75;25.05;;;13.20;95.80;;;;;;4933648;29;20452;-82
2021/09/06 04:12:59;;;;;;;40.85;25.88;;;13.30;95.90;;;;;;4885488;29;20039;-82
2021/09/06 04:15:25;;;;;;;39.90;27.02;;;13.20;95.90;;;;;;4886770;29;20063;-82
2021/09/06 04:17:51;;;;;;;36.90;24.40;;;13.20;95.90;;;;;;4918136;29;20032;-83
2021/09/06 04:20:17;;;;;;;45.72;27.40;;;13.20;96.00;;;;;;4886215;29;20138;-82
2021/09/06 04:22:42;;;;;;;42.63;27.52;;;13.20;96.00;;;;;;4916699;29;20028;-83
2021/09/06 04:25:09;;;;;;;39.40;26.42;;;13.10;96.00;;;;;;4885115;29;20031;-82
2021/09/06 04:27:35;;;;;;;45.15;27.15;;;13.10;96.10;;;;;;4916909;29;20135;-82
2021/09/06 04:30:01;;;;;;;44.95;27.55;;;13.10;96.20;;;;;;4932224;29;20032;-82
2021/09/06 04:32:27;;;;;;;41.00;25.77;;;13.10;96.30;;;;;;4885065;29;20096;-82
2021/09/06 04:34:53;;;;;;;40.25;26.20;;;13.00;96.20;;;;;;4900735;29;20040;-82
2021/09/06 04:37:18;;;;;;;39.42;25.75;;;13.10;96.30;;;;;;4900968;29;20088;-82
2021/09/06 04:39:44;;;;;;;42.33;26.58;;;13.10;96.20;;;;;;4916390;29;20491;-82
2021/09/06 04:42:10;;;;;;;42.40;26.90;;;13.10;96.30;;;;;;4917318;29;20032;-82
2021/09/06 04:44:35;;;;;;;42.47;26.85;;;13.00;96.30;;;;;;4885474;29;20445;-82
2021/09/06 04:47:01;;;;;;;43.05;27.73;;;13.00;96.40;;;;;;4884767;29;20034;-82
2021/09/06 04:49:27;;;;;;;48.40;29.23;;;13.00;96.40;;;;;;4900259;29;20051;-82
2021/09/06 04:51:52;;;;;;;43.70;28.38;;;12.90;96.40;;;;;;4884260;29;20052;-82
2021/09/06 04:54:19;;;;;;;43.93;28.10;;;12.80;96.50;;;;;;4885473;29;20149;-82
2021/09/06 04:56:45;;;;;;;44.88;27.88;;;12.80;96.60;;;;;;4916709;29;20028;-83
2021/09/06 04:59:11;;;;;;;44.63;27.40;;;12.90;96.70;;;;;;4916801;29;20480;-82
2021/09/06 05:01:36;;;;;;;42.40;27.75;;;13.00;96.70;;;;;;4900067;29;20032;-82
2021/09/06 05:04:03;;;;;;;41.70;27.90;;;13.00;96.60;;;;;;4885073;29;20052;-82
2021/09/06 05:06:28;;;;;;;45.75;28.77;;;12.90;96.60;;;;;;4884880;29;20452;-82
2021/09/06 05:08:54;;;;;;;42.10;27.10;;;12.90;96.70;;;;;;4916142;29;20056;-82
2021/09/06 05:11:20;;;;;;;41.90;26.92;;;12.90;96.70;;;;;;4933179;29;20063;-82
2021/09/06 05:13:45;;;;;;;42.63;27.10;;;12.90;96.80;;;;;;4886536;29;20472;-82
2021/09/06 05:16:11;;;;;;;46.20;27.33;;;13.00;96.80;;;;;;4933152;29;20024;-82
2021/09/06 05:18:37;;;;;;;42.38;26.67;;;13.10;96.80;;;;;;4903478;29;20032;-80
2021/09/06 05:21:03;;;;;;;42.80;26.30;;;13.20;96.80;;;;;;4903665;29;20047;-79
2021/09/06 05:23:28;;;;;;;43.67;26.08;;;13.40;96.90;;;;;;4890598;29;20040;-81
2021/09/06 05:25:54;;;;;;;42.05;26.33;;;13.80;96.90;;;;;;4905342;29;20476;-80
2021/09/06 05:28:20;;;;;;;37.78;25.38;;;14.30;96.40;;;;;;4921517;29;20163;-81
2021/09/06 05:30:46;;;;;;;33.92;23.27;;;14.80;95.50;;;;;;4935541;29;20024;-81
2021/09/06 05:33:12;;;;;;;32.05;21.95;;;15.30;94.40;;;;;;4888286;29;20432;-81
2021/09/06 05:35:37;;;;;;;30.38;21.63;;;15.80;92.90;;;;;;4903726;29;20028;-81
2021/09/06 05:38:03;;;;;;;30.77;21.17;;;16.40;91.60;;;;;;4888201;29;20528;-82
2021/09/06 05:40:29;;;;;;;30.80;21.00;;;16.80;90.30;;;;;;4919261;29;20028;-81
2021/09/06 05:42:55;;;;;;;35.30;21.27;;;17.20;88.40;;;;;;4904010;29;20400;-81
2021/09/06 05:45:21;;;;;;;33.03;19.20;;;17.60;86.10;;;;;;4888208;29;20119;-81
2021/09/06 05:47:47;;;;;;;28.90;20.63;;;18.00;84.30;;;;;;4935333;29;20136;-81
2021/09/06 05:50:17;;;;;;;27.77;19.80;;;18.30;82.60;;;;;;4903587;29;20038;-81
2021/09/06 05:52:44;;;;;;;28.77;20.13;;;18.70;80.80;;;;;;4877289;29;20095;-82
2021/09/06 05:55:11;;;;;;;29.85;19.92;;;19.00;79.20;;;;;;4901309;29;20041;-82
2021/09/06 05:57:38;;;;;;;25.77;18.90;;;19.30;78.20;;;;;;4900867;29;20025;-82
2021/09/06 06:00:04;;;;;;;30.55;19.15;;;19.60;77.00;;;;;;4915833;29;20024;-82
2021/09/06 06:02:30;;;;;;;25.25;20.02;;;19.90;75.40;;;;;;4869348;29;20476;-82
2021/09/06 06:04:56;;;;;;;27.48;19.52;;;20.10;73.90;;;;;;4899909;29;20132;-81
2021/09/06 06:07:21;;;;;;;29.85;19.35;;;20.30;73.70;;;;;;4883735;29;20065;-80
2021/09/06 06:09:48;;;;;;;23.55;18.60;;;20.60;72.90;;;;;;4899722;29;20032;-81
2021/09/06 06:12:14;;;;;;;30.45;20.08;;;20.90;72.60;;;;;;4868982;29;20033;-81
2021/09/06 06:14:40;;;;;;;27.95;21.52;;;21.20;70.80;;;;;;4899955;29;20409;-81
2021/09/06 06:17:05;;;;;;;25.15;20.85;;;21.20;70.20;;;;;;4883751;29;20473;-82
2021/09/06 06:19:31;;;;;;;24.20;19.63;;;21.20;70.20;;;;;;4868425;29;20036;-81
2021/09/06 06:21:57;;;;;;;25.02;19.70;;;21.50;69.60;;;;;;4899216;29;20455;-81
2021/09/06 06:24:22;;;;;;;27.98;20.65;;;21.80;69.30;;;;;;4882737;29;20064;-82
2021/09/06 06:26:48;;;;;;;27.33;20.10;;;22.10;67.70;;;;;;4867752;29;20037;-81
2021/09/06 06:29:14;;;;;;;26.40;20.08;;;22.00;67.00;;;;;;4883660;29;20044;-83
2021/09/06 06:31:39;;;;;;;26.50;20.35;;;21.80;67.20;;;;;;4867507;29;20024;-81
2021/09/06 06:34:05;;;;;;;25.30;19.70;;;21.90;67.70;;;;;;4866738;29;20032;-82
2021/09/06 06:36:31;;;;;;;25.67;19.50;;;22.00;66.60;;;;;;4899993;29;20024;-83
2021/09/06 06:38:56;;;;;;;24.30;19.27;;;22.20;66.80;;;;;;4867744;29;20064;-82
2021/09/06 06:41:22;;;;;;;25.25;21.10;;;22.10;66.40;;;;;;4898915;29;20024;-82
2021/09/06 06:43:48;;;;;;;24.65;19.65;;;22.30;65.90;;;;;;4868032;29;20469;-81
2021/09/06 06:46:14;;;;;;;26.92;21.02;;;22.30;65.90;;;;;;4867795;29;20084;-81
2021/09/06 06:48:40;;;;;;;24.15;19.50;;;22.30;65.70;;;;;;4883313;29;20062;-81
2021/09/06 06:51:06;;;;;;;24.00;19.08;;;22.50;65.50;;;;;;4883307;29;20385;-81
2021/09/06 06:53:32;;;;;;;28.90;19.80;;;23.00;65.10;;;;;;4884102;29;20044;-82
2021/09/06 06:55:57;;;;;;;24.67;20.23;;;23.60;63.70;;;;;;4901438;29;20036;-82
2021/09/06 06:58:24;;;;;;;25.95;20.35;;;24.10;62.10;;;;;;4901582;29;20399;-81
2021/09/06 07:00:50;;;;;;;25.00;20.50;;;24.30;61.30;;;;;;4909060;29;20420;-84
2021/09/06 07:03:16;;;;;;;26.50;20.20;;;24.10;61.50;;;;;;4900378;29;20039;-82
2021/09/06 07:05:41;;;;;;;25.38;19.02;;;24.20;61.60;;;;;;4914793;29;20028;-82
2021/09/06 07:08:07;;;;;;;26.40;20.48;;;24.80;61.50;;;;;;4892936;29;20046;-82
2021/09/06 07:10:33;;;;;;;26.48;21.83;;;25.30;60.70;;;;;;4919955;29;20476;-81
2021/09/06 07:12:58;;;;;;;27.25;22.45;;;25.70;59.30;;;;;;4903078;29;20479;-81
2021/09/06 07:15:24;;;;;;;26.33;23.17;;;26.10;58.70;;;;;;4887143;29;20035;-82
2021/09/06 07:17:50;;;;;;;30.85;24.27;;;26.40;57.90;;;;;;4886321;29;20036;-82
2021/09/06 07:20:15;;;;;;;27.42;20.75;;;26.60;56.80;;;;;;4886673;29;20040;-82
2021/09/06 07:22:42;;;;;;;27.27;20.45;;;26.90;55.70;;;;;;4885995;29;20406;-82
2021/09/06 07:25:08;;;;;;;25.15;20.98;;;27.10;55.00;;;;;;4917306;29;20036;-81
2021/09/06 07:27:35;;;;;;;23.58;19.90;;;27.20;55.00;;;;;;4901356;29;20119;-81
2021/09/06 07:30:01;;;;;;;26.17;20.38;;;27.50;54.50;;;;;;4918349;29;20034;-82
2021/09/06 07:32:27;;;;;;;25.75;20.25;;;27.70;53.90;;;;;;4918627;29;20032;-83
2021/09/06 07:34:52;;;;;;;24.08;20.13;;;27.90;53.40;;;;;;4901454;29;20039;-84
2021/09/06 07:37:18;;;;;;;26.90;21.67;;;27.90;52.80;;;;;;4918055;29;20435;-83
2021/09/06 07:39:47;;;;;;;26.52;20.70;;;27.90;52.10;;;;;;4917087;29;20028;-84
2021/09/06 07:42:12;;;;;;;28.27;21.15;;;27.90;52.20;;;;;;4917523;29;20039;-84
2021/09/06 07:44:38;;;;;;;23.08;20.13;;;28.10;52.80;;;;;;4901061;29;20024;-84
2021/09/06 07:47:04;;;;;;;24.38;19.98;;;28.30;51.50;;;;;;4932694;29;20111;-85
2021/09/06 07:49:29;;;;;;;26.33;20.67;;;28.40;51.40;;;;;;4917499;29;20032;-83
2021/09/06 07:51:56;;;;;;;25.50;21.38;;;28.20;51.40;;;;;;4885277;29;20067;-83
2021/09/06 07:54:23;;;;;;;25.95;21.25;;;28.10;50.90;;;;;;4900917;29;20044;-85
2021/09/06 07:56:53;;;;;;;23.50;20.98;;;27.70;51.80;;;;;;4932065;29;20035;-85
2021/09/06 07:59:19;;;;;;;24.30;20.95;;;27.40;52.50;;;;;;4901513;29;20032;-83
2021/09/06 08:01:45;;;;;;;26.20;20.33;;;27.40;53.20;;;;;;4901214;29;20376;-84
2021/09/06 08:04:11;;;;;;;25.27;21.15;;;27.80;53.20;;;;;;4885151;29;20050;-83
2021/09/06 08:06:38;;;;;;;24.85;21.20;;;28.30;52.40;;;;;;4932119;29;20084;-83
2021/09/06 08:09:04;;;;;;;21.42;18.73;;;28.60;50.80;;;;;;4885150;29;20032;-83
2021/09/06 08:11:30;;;;;;;25.90;19.27;;;28.90;50.60;;;;;;4932167;29;20024;-84
2021/09/06 08:13:56;;;;;;;25.60;20.27;;;28.90;50.20;;;;;;4917973;29;20028;-84
2021/09/06 08:16:22;;;;;;;25.48;19.58;;;29.20;50.80;;;;;;4901124;29;20110;-83
2021/09/06 08:18:48;;;;;;;27.33;20.88;;;29.70;50.80;;;;;;4916542;29;20115;-84
2021/09/06 08:21:14;;;;;;;25.10;20.98;;;30.00;49.00;;;;;;4870396;29;20172;-84
2021/09/06 08:23:40;;;;;;;22.27;18.33;;;30.30;48.80;;;;;;4885347;29;20487;-82
2021/09/06 08:26:06;;;;;;;25.02;19.52;;;30.60;48.90;;;;;;4920103;29;20032;-85
2021/09/06 08:28:31;;;;;;;23.65;18.38;;;30.90;47.90;;;;;;4887369;29;20043;-82
2021/09/06 08:30:57;;;;;;;20.75;16.67;;;31.20;47.70;;;;;;4887845;29;20047;-81
2021/09/06 08:33:23;;;;;;;20.85;17.10;;;31.40;46.80;;;;;;4917350;29;20035;-80
2021/09/06 08:35:49;;;;;;;18.50;16.48;;;31.40;46.50;;;;;;4931936;29;20026;-81
2021/09/06 08:38:15;;;;;;;20.10;16.13;;;31.50;46.90;;;;;;4900831;29;20353;-79
2021/09/06 08:40:41;;;;;;;21.77;17.65;;;31.80;46.60;;;;;;4916488;29;20139;-81
2021/09/06 08:43:07;;;;;;;19.08;17.02;;;31.40;44.50;;;;;;4884674;29;20028;-81
2021/09/06 08:45:34;;;;;;;20.95;16.58;;;30.80;45.60;;;;;;4915257;29;20178;-82
2021/09/06 08:48:01;;;;;;;17.63;14.60;;;30.70;46.30;;;;;;4917273;29;20036;-81
2021/09/06 08:50:27;;;;;;;16.23;14.23;;;31.00;46.50;;;;;;4884429;29;20048;-82
2021/09/06 08:52:54;;;;;;;16.70;14.88;;;31.20;46.10;;;;;;4883618;29;20067;-81
2021/09/06 08:55:20;;;;;;;16.65;14.75;;;31.40;45.50;;;;;;4899085;29;20060;-80
2021/09/06 08:57:46;;;;;;;18.77;15.32;;;31.00;44.50;;;;;;4898681;29;20090;-80
2021/09/06 09:00:13;;;;;;;16.38;14.65;;;30.60;46.90;;;;;;4899451;29;20547;-80
2021/09/06 09:02:40;;;;;;;18.65;15.45;;;30.90;46.30;;;;;;4899414;29;20028;-79
2021/09/06 09:05:11;;;;;;;17.25;14.02;;;30.80;45.50;;;;;;4899294;29;20024;-81
2021/09/06 09:07:39;;;;;;;18.40;15.40;;;30.80;46.30;;;;;;4916098;29;20039;-81
2021/09/06 09:10:11;;;;;;;19.35;16.48;;;31.00;45.60;;;;;;4899499;29;20303;-80
2021/09/06 09:12:38;;;;;;;16.08;14.10;;;31.10;44.50;;;;;;4899150;29;20032;-80
2021/09/06 09:15:05;;;;;;;18.92;13.82;;;31.00;44.50;;;;;;4915971;29;20429;-77
2021/09/06 09:17:34;;;;;;;17.15;13.95;;;30.60;44.50;;;;;;4916358;29;20031;-81
2021/09/06 09:20:03;;;;;;;19.02;14.95;;;30.00;45.50;;;;;;4883856;29;20032;-80
2021/09/06 09:22:34;;;;;;;18.38;14.30;;;29.60;45.90;;;;;;4899312;29;20032;-80
2021/09/06 09:25:06;;;;;;;19.58;14.80;;;29.30;47.50;;;;;;4899141;29;20091;-80
2021/09/06 09:27:34;;;;;;;19.20;15.35;;;29.20;46.80;;;;;;4899367;29;20112;-80
2021/09/06 09:30:00;;;;;;;18.65;14.85;;;28.80;48.20;;;;;;4899828;29;20063;-79
2021/09/06 09:32:27;;;;;;;16.10;13.27;;;29.00;48.20;;;;;;4899095;29;20048;-80
2021/09/06 09:34:53;;;;;;;21.13;14.68;;;28.90;47.40;;;;;;4914706;29;20046;-80
2021/09/06 09:37:28;;;;;;;19.25;14.40;;;28.60;47.60;;;;;;4916254;29;20063;-81
2021/09/06 09:39:59;;;;;;;18.60;14.75;;;28.60;48.10;;;;;;4883402;29;20036;-80
2021/09/06 09:42:24;;;;;;;19.38;14.63;;;28.70;47.30;;;;;;4899245;29;20468;-80
2021/09/06 09:44:51;;;;;;;19.27;15.13;;;28.90;47.80;;;;;;4915886;29;20028;-79
2021/09/06 09:47:20;;;;;;;18.58;13.82;;;29.20;47.90;;;;;;4930806;29;20032;-79
2021/09/06 09:49:53;;;;;;;14.90;12.25;;;29.50;47.10;;;;;;4898863;29;20032;-79
2021/09/06 09:52:21;;;;;;;16.25;13.35;;;29.50;46.90;;;;;;4898971;29;20059;-79
2021/09/06 09:54:55;;;;;;;16.15;12.98;;;29.80;45.10;;;;;;4898921;29;20176;-79
2021/09/06 09:57:25;;;;;;;18.63;14.30;;;29.50;45.70;;;;;;4930638;29;20068;-81
2021/09/06 09:59:53;;;;;;;19.70;14.00;;;29.70;46.00;;;;;;4915268;29;20032;-81
2021/09/06 10:02:37;;;;;;;18.00;13.75;;;30.20;46.60;;;;;;4916008;29;20028;-81
2021/09/06 10:05:06;;;;;;;16.02;12.27;;;30.80;44.60;;;;;;4915068;29;20039;-81
2021/09/06 10:07:35;;;;;;;17.00;13.07;;;31.20;43.70;;;;;;4898877;29;20043;-80
2021/09/06 10:10:18;;;;;;;14.88;12.75;;;31.60;42.70;;;;;;4918430;29;20028;-80
2021/09/06 10:13:00;;;;;;;15.80;13.63;;;31.40;41.70;;;;;;4902796;29;20417;-81
2021/09/06 10:15:25;;;;;;;16.73;12.90;;;31.20;42.50;;;;;;4919602;29;20027;-82
2021/09/06 10:17:52;;;;;;;17.75;13.52;;;31.60;43.10;;;;;;4903135;29;20040;-83
2021/09/06 10:20:18;;;;;;;16.08;12.82;;;31.70;42.20;;;;;;4919531;29;20127;-83
2021/09/06 10:22:46;;;;;;;16.98;12.00;;;31.20;41.30;;;;;;4902391;29;20468;-85
2021/09/06 10:25:16;;;;;;;14.93;13.25;;;31.10;42.80;;;;;;4918172;29;20039;-83
2021/09/06 10:27:54;;;;;;;17.75;12.80;;;31.40;41.60;;;;;;4919215;29;20028;-85
2021/09/06 10:30:20;;;;;;;15.52;12.63;;;31.60;41.20;;;;;;4933495;29;20032;-82
2021/09/06 10:32:50;;;;;;;13.27;11.93;;;31.50;40.60;;;;;;4902451;29;20425;-83
2021/09/06 10:35:23;;;;;;;15.07;12.15;;;31.50;41.60;;;;;;4919133;29;20115;-82
2021/09/06 10:38:12;;;;;;;14.45;12.35;;;31.40;41.80;;;;;;4933571;29;20070;-83
2021/09/06 10:40:40;;;;;;;13.90;11.70;;;31.50;41.60;;;;;;4912935;29;20444;-82
2021/09/06 10:43:16;;;;;;;14.25;11.32;;;31.90;42.00;;;;;;4933693;29;20047;-82
2021/09/06 10:45:44;;;;;;;14.40;11.27;;;32.40;40.80;;;;;;4919246;29;20043;-83
2021/09/06 10:48:22;;;;;;;15.43;12.23;;;32.00;39.50;;;;;;4933538;29;20042;-84
2021/09/06 10:50:48;;;;;;;15.25;11.88;;;31.70;39.70;;;;;;4933986;29;20052;-83
2021/09/06 10:53:17;;;;;;;13.07;11.70;;;31.50;40.40;;;;;;4886270;29;20051;-84
2021/09/06 10:55:52;;;;;;;13.60;11.90;;;31.20;41.20;;;;;;4918980;29;20099;-83
2021/09/06 10:58:21;;;;;;;16.40;11.90;;;31.60;42.00;;;;;;4933607;29;20032;-83
2021/09/06 11:00:52;;;;;;;14.80;13.18;;;31.70;40.70;;;;;;4933311;29;20051;-85
2021/09/06 11:03:19;;;;;;;15.02;11.82;;;31.50;41.40;;;;;;4901624;29;20016;-83
2021/09/06 11:05:56;;;;;;;14.85;12.00;;;31.20;41.40;;;;;;4901754;29;20111;-82
2021/09/06 11:08:30;;;;;;;15.80;11.63;;;30.80;42.30;;;;;;4933157;29;20040;-83
2021/09/06 11:10:58;;;;;;;14.55;12.80;;;30.60;43.10;;;;;;4918608;29;20056;-82
2021/09/06 11:13:33;;;;;;;17.42;11.05;;;31.00;42.70;;;;;;4933015;29;20025;-82
2021/09/06 11:15:59;;;;;;;14.23;10.30;;;31.40;42.20;;;;;;4917899;29;20036;-86
2021/09/06 11:18:30;;;;;;;11.93;10.73;;;32.00;41.00;;;;;;4902503;29;20401;-84
2021/09/06 11:20:56;;;;;;;14.73;11.53;;;32.40;40.20;;;;;;4918002;29;20484;-85
2021/09/06 11:23:30;;;;;;;11.65;10.50;;;32.40;39.10;;;;;;4918959;29;20275;-85
2021/09/06 11:25:56;;;;;;;12.07;10.68;;;32.30;39.60;;;;;;4902235;29;20032;-84
2021/09/06 11:28:22;;;;;;;13.43;10.82;;;31.80;39.50;;;;;;4902644;29;20044;-83
2021/09/06 11:30:47;;;;;;;15.43;11.40;;;31.70;40.90;;;;;;4925573;29;20495;-84
2021/09/06 11:33:14;;;;;;;12.63;10.77;;;31.80;40.90;;;;;;4909498;29;20451;-83
2021/09/06 11:35:42;;;;;;;14.30;10.57;;;31.90;41.00;;;;;;4930680;29;20035;-86
2021/09/06 11:38:09;;;;;;;12.45;11.25;;;32.10;39.40;;;;;;4934830;29;20028;-86
2021/09/06 11:40:36;;;;;;;12.15;10.80;;;32.30;39.60;;;;;;4917972;29;20511;-85
2021/09/06 11:43:04;;;;;;;16.88;13.27;;;32.40;39.90;;;;;;4917486;29;20072;-83
2021/09/06 11:45:30;;;;;;;17.52;13.18;;;32.30;39.70;;;;;;4901237;29;20366;-82
2021/09/06 11:48:04;;;;;;;15.35;11.82;;;32.20;39.90;;;;;;4869508;29;20543;-83
2021/09/06 11:50:35;;;;;;;12.40;10.82;;;32.00;39.70;;;;;;4932172;29;20032;-81
2021/09/06 11:53:03;;;;;;;12.52;10.57;;;32.00;40.30;;;;;;4900238;29;20095;-81
2021/09/06 11:55:30;;;;;;;12.27;10.18;;;32.00;40.40;;;;;;4900689;29;20039;-83
2021/09/06 11:58:09;;;;;;;11.95;10.57;;;32.00;39.60;;;;;;4885101;29;20036;-83
2021/09/06 12:00:37;;;;;;;11.80;10.60;;;32.10;39.20;;;;;;4869664;29;20047;-81
2021/09/06 12:03:03;;;;;;;12.52;9.35;;;32.20;39.20;;;;;;4931731;29;20020;-81
2021/09/06 12:05:39;;;;;;;9.98;8.48;;;32.20;39.20;;;;;;4931933;29;20112;-82
2021/09/06 12:08:12;;;;;;;12.13;9.35;;;32.20;38.10;;;;;;4899969;29;20406;-82
2021/09/06 12:10:39;;;;;;;9.23;8.32;;;32.30;36.20;;;;;;4900447;29;20095;-81
2021/09/06 12:13:08;;;;;;;9.60;8.60;;;32.50;35.70;;;;;;4900317;29;20028;-81
2021/09/06 12:15:36;;;;;;;10.60;8.43;;;32.50;35.80;;;;;;4932311;29;20461;-82
2021/09/06 12:18:13;;;;;;;10.57;9.20;;;32.40;36.50;;;;;;4916999;29;20036;-83
2021/09/06 12:20:41;;;;;;;11.65;9.73;;;32.40;36.70;;;;;;4900229;29;20024;-83
2021/09/06 12:23:13;;;;;;;10.32;9.15;;;32.30;36.40;;;;;;4884820;29;20039;-82
2021/09/06 12:25:41;;;;;;;11.98;9.93;;;32.00;36.10;;;;;;4931764;29;20036;-81
2021/09/06 12:28:14;;;;;;;10.02;9.02;;;31.80;36.20;;;;;;4900437;29;20040;-84